Farmville, VA (23901)

9:15 PM EDT on September 01, 2015 (GMT -0400)
Hampden-Sydney College | | Change Station
CLOSE
Current Station
Personal Weather Station
Location: Hampden-Sydney, VA
Elevation: 510 ft
Nearby Weather Stations

Elev 510 ft 37.24 °N, 78.46 °W | Updated 8 seconds ago

Partly Cloudy
Partly Cloudy
79.2 °F
Feels Like 82 °F
N
0.0
Wind Variable Wind from SSE
Gusts 0.0 mph

Today
High -- | Low -- °F
--% Chance of Precip.
Yesterday
High -- | Low -- °F
Precip. -- in
6:43 AM 7:42 PM
Waning Gibbous, 85% visible
Pressure 30.05 in
Visibility 7.0 miles
Clouds Clear
Heat Index 82 °F
Dew Point 71 °F
Humidity 76%
Rainfall 0.00 in
Snow Depth Not available.
UV 0.0 out of 12
Pollen 9.10 out of 12
Air Quality Not available.
Flu Activity Not available.
METAR KFVX 020055Z AUTO 00000KT 7SM CLR 25/19 A3005 RMK AO2 T02500192
Pressure 30.05 in
Visibility 7.0 miles
Clouds Clear
Heat Index 82 °F
Dew Point 71 °F
Humidity 76%
Rainfall 0.00 in
Snow Depth Not available.
UV 0.0 out of 12
Pollen 9.10 out of 12
Air Quality Not available.
Flu Activity Not available.
METAR KFVX 020055Z AUTO 00000KT 7SM CLR 25/19 A3005 RMK AO2 T02500192

10-Day Weather Forecast

×

Almanac

Astronomy

Sep. 01, 2015 Rise Set
Actual Time
Civil Twilight
Nautical Twilight
Astronomical Twilight
Moon
Length of Visible Light
Length of Day
Tomorrow will be .
, % of the Moon is Illuminated

Today's Extremes

State Highs State Lows

Community

WunderPhotos

Upload Photos

1,851,667 photos uploaded!

WunderBlogs® & News

Nearby

Air Quality

  Air Quality AQ Index Pollutant
Not available.

Snow Depth

Station Depth Elevation

Earthquake Activity

City Distance Mag. Time & Date
Minimum magnitude displayed is 2.5.

Coastal Water Temperatures

Place Temperature

Stations

Nearby Weather Stations

Station Location Temp. Windchill Dew Point Humidity Wind Precip. Elev Updated Type